Time;durP1;ratioP1;P1;durP2;ratioP2;P2;SDS_P1;SDS_P2;PMS_P1;PMS_P2;Temp;Humidity;BMP_temperature;BMP_pressure;BME280_temperature;BME280_humidity;BME280_pressure;Samples;Min_cycle;Max_cycle;Signal;HPM_P1;HPM_P2
2023/08/09 00:01:48;;;;;;;;;;;;;;;26.57;37.92;97974.41;5073424;28;20394;-67
2023/08/09 00:04:13;;;;;;;;;;;;;;;26.51;37.61;97973.88;5072535;28;19925;-67
2023/08/09 00:06:38;;;;;;;;;;;;;;;26.52;37.74;97980.97;5072954;28;19924;-67
2023/08/09 00:09:04;;;;;;;;;;;;;;;26.54;37.65;97986.94;5073093;28;19948;-67
2023/08/09 00:11:29;;;;;;;;;;;;;;;26.54;37.63;97994.38;5073121;28;20374;-67
2023/08/09 00:13:54;;;;;;;;;;;;;;;26.55;37.89;97991.25;5073134;28;20391;-67
2023/08/09 00:16:20;;;;;;;;;;;;;;;26.56;37.83;98008.56;5073150;28;20299;-67
2023/08/09 00:18:45;;;;;;;;;;;;;;;26.54;37.68;98006.19;5073003;28;19912;-66
2023/08/09 00:21:10;;;;;;;;;;;;;;;26.57;37.72;98015.69;5072914;28;19920;-66
2023/08/09 00:23:36;;;;;;;;;;;;;;;26.56;37.54;98014.06;5072676;28;20336;-66
2023/08/09 00:26:01;;;;;;;;;;;;;;;26.52;37.58;98024.22;5072701;28;19913;-67
2023/08/09 00:28:26;;;;;;;;;;;;;;;26.41;37.20;98024.78;5072687;28;20002;-66
2023/08/09 00:30:52;;;;;;;;;;;;;;;26.39;37.32;98035.38;5073035;28;19920;-67
2023/08/09 00:33:17;;;;;;;;;;;;;;;26.29;36.88;98035.91;5072771;28;19944;-67
2023/08/09 00:35:42;;;;;;;;;;;;;;;26.28;37.48;98042.59;5074020;28;20011;-66
2023/08/09 00:38:07;;;;;;;;;;;;;;;26.34;37.51;98038.38;5073570;28;19920;-66
2023/08/09 00:40:33;;;;;;;;;;;;;;;26.35;37.62;98053.72;5074196;28;19912;-67
2023/08/09 00:42:58;;;;;;;;;;;;;;;26.41;37.13;98062.50;5072559;28;19928;-67
2023/08/09 00:45:23;;;;;;;;;;;;;;;26.38;37.24;98057.75;5072506;28;19913;-67
2023/08/09 00:47:49;;;;;;;;;;;;;;;26.42;37.59;98073.16;5072155;28;19912;-67
2023/08/09 00:50:15;;;;;;;;;;;;;;;26.42;37.55;98069.63;5054608;28;20007;-67
2023/08/09 00:52:40;;;;;;;;;;;;;;;26.43;37.54;98072.03;5055208;28;20007;-66
2023/08/09 00:55:06;;;;;;;;;;;;;;;26.43;37.32;98080.28;5072498;28;19916;-66
2023/08/09 00:57:32;;;;;;;;;;;;;;;26.42;37.06;98088.88;5072723;28;19966;-67
2023/08/09 00:59:57;;;;;;;;;;;;;;;26.40;36.94;98080.97;5072606;28;20361;-67
2023/08/09 01:02:23;;;;;;;;;;;;;;;26.26;36.98;98086.97;5072173;28;19959;-67
2023/08/09 01:04:49;;;;;;;;;;;;;;;26.21;37.18;98089.97;5072406;28;19923;-67
2023/08/09 01:07:16;;;;;;;;;;;;;;;26.19;37.04;98094.25;5072273;28;19951;-67
2023/08/09 01:09:48;;;;;;;;;;;;;;;26.18;37.41;98095.41;5072486;28;19982;-67
2023/08/09 01:12:22;;;;;;;;;;;;;;;26.11;37.00;98103.47;5072480;28;19995;-67
2023/08/09 01:14:51;;;;;;;;;;;;;;;26.04;36.75;98115.91;5072614;28;19956;-67
2023/08/09 01:17:17;;;;;;;;;;;;;;;25.97;37.13;98120.41;5072481;28;20264;-67
2023/08/09 01:19:48;;;;;;;;;;;;;;;25.97;37.23;98125.91;5071529;28;19923;-67
2023/08/09 01:22:20;;;;;;;;;;;;;;;25.91;37.17;98125.34;5071481;28;19924;-67
2023/08/09 01:24:45;;;;;;;;;;;;;;;25.83;37.05;98137.31;5071687;28;19952;-67
2023/08/09 01:27:11;;;;;;;;;;;;;;;25.78;36.77;98141.13;5072102;28;19959;-67
2023/08/09 01:29:37;;;;;;;;;;;;;;;25.36;36.89;98092.06;5072311;28;19963;-67
2023/08/09 01:32:02;;;;;;;;;;;;;;;25.64;36.97;98152.53;5072274;28;20012;-67
2023/08/09 01:34:28;;;;;;;;;;;;;;;25.55;37.44;98157.38;5072369;28;19958;-67
2023/08/09 01:36:56;;;;;;;;;;;;;;;25.50;37.36;98165.84;5072411;28;19916;-67
2023/08/09 01:39:22;;;;;;;;;;;;;;;25.46;37.04;98178.69;5072785;28;19920;-66
2023/08/09 01:41:48;;;;;;;;;;;;;;;25.39;37.28;98171.06;5072768;28;19920;-67
2023/08/09 01:44:15;;;;;;;;;;;;;;;25.34;37.53;98181.50;5072504;28;19913;-67
2023/08/09 01:46:41;;;;;;;;;;;;;;;25.32;37.65;98189.31;5071377;28;20131;-67
2023/08/09 01:49:10;;;;;;;;;;;;;;;25.30;37.93;98201.44;5053954;28;20287;-67
2023/08/09 01:51:36;;;;;;;;;;;;;;;25.39;37.48;98200.47;5076241;28;20324;-67
2023/08/09 01:54:01;;;;;;;;;;;;;;;25.41;37.69;98200.97;5075770;28;19912;-67
2023/08/09 01:56:26;;;;;;;;;;;;;;;25.44;37.86;98206.53;5075859;28;19913;-67
2023/08/09 01:58:52;;;;;;;;;;;;;;;25.35;37.61;98208.63;5075748;28;20030;-67
2023/08/09 02:01:17;;;;;;;;;;;;;;;25.38;37.61;98215.38;5075776;28;20277;-67
2023/08/09 02:03:43;;;;;;;;;;;;;;;25.43;37.86;98226.13;5075173;28;20015;-67
2023/08/09 02:06:09;;;;;;;;;;;;;;;25.34;37.33;98226.25;5075740;28;19948;-67
2023/08/09 02:08:34;;;;;;;;;;;;;;;25.41;37.50;98231.19;5075521;28;19952;-67
2023/08/09 02:10:59;;;;;;;;;;;;;;;25.42;37.55;98235.50;5072262;28;19924;-67
2023/08/09 02:13:24;;;;;;;;;;;;;;;25.38;37.93;98246.41;5075087;28;19956;-67
2023/08/09 02:15:50;;;;;;;;;;;;;;;25.41;37.61;98245.72;5075478;28;19916;-67
2023/08/09 02:18:15;;;;;;;;;;;;;;;25.44;37.96;98261.50;5075152;28;20309;-67
2023/08/09 02:20:40;;;;;;;;;;;;;;;25.50;38.00;98270.28;5074916;28;19912;-67
2023/08/09 02:23:06;;;;;;;;;;;;;;;25.55;37.81;98267.31;5074835;28;19923;-67
2023/08/09 02:25:31;;;;;;;;;;;;;;;25.57;37.53;98277.97;5074851;28;20032;-66
2023/08/09 02:27:57;;;;;;;;;;;;;;;25.59;37.54;98276.47;5074754;28;19912;-67
2023/08/09 02:30:22;;;;;;;;;;;;;;;25.58;37.15;98290.56;5074631;28;19923;-67
2023/08/09 02:32:50;;;;;;;;;;;;;;;25.60;37.75;98288.28;5066526;28;19948;-67
2023/08/09 02:35:16;;;;;;;;;;;;;;;25.59;37.47;98294.91;5054810;28;20124;-67
2023/08/09 02:37:41;;;;;;;;;;;;;;;25.56;37.60;98301.91;5069930;28;20016;-67
2023/08/09 02:40:06;;;;;;;;;;;;;;;25.58;37.60;98307.06;5074335;28;19950;-67
2023/08/09 02:42:32;;;;;;;;;;;;;;;25.60;37.18;98311.06;5074454;28;19912;-67
2023/08/09 02:44:57;;;;;;;;;;;;;;;25.63;37.64;98320.56;5074765;28;19913;-67
2023/08/09 02:47:23;;;;;;;;;;;;;;;25.61;37.25;98328.34;5055997;28;19923;-67
2023/08/09 02:49:48;;;;;;;;;;;;;;;25.65;37.18;98337.53;5074546;28;20261;-67
2023/08/09 02:52:14;;;;;;;;;;;;;;;25.66;37.10;98342.66;5074357;28;19912;-67
2023/08/09 02:54:40;;;;;;;;;;;;;;;25.65;37.18;98343.03;5074594;28;19912;-67
2023/08/09 02:57:06;;;;;;;;;;;;;;;25.60;37.29;98344.03;5074638;28;19919;-67
2023/08/09 02:59:32;;;;;;;;;;;;;;;25.60;37.56;98352.28;5074631;28;19913;-67
2023/08/09 03:01:57;;;;;;;;;;;;;;;25.65;37.38;98359.53;5074497;28;19977;-67
2023/08/09 03:04:22;;;;;;;;;;;;;;;25.67;37.06;98365.47;5074062;28;19924;-67
2023/08/09 03:06:48;;;;;;;;;;;;;;;25.61;37.21;98362.16;5074371;28;20318;-67
2023/08/09 03:09:13;;;;;;;;;;;;;;;25.53;36.84;98379.56;5074827;28;19912;-67
2023/08/09 03:11:38;;;;;;;;;;;;;;;25.43;36.98;98385.53;5074384;28;19931;-67
2023/08/09 03:14:04;;;;;;;;;;;;;;;25.37;37.07;98390.44;5074282;28;19912;-67
2023/08/09 03:16:29;;;;;;;;;;;;;;;25.23;36.56;98384.47;5074111;28;19923;-67
2023/08/09 03:18:54;;;;;;;;;;;;;;;25.23;37.37;98392.69;5056175;28;19924;-67
2023/08/09 03:21:19;;;;;;;;;;;;;;;25.20;37.07;98396.13;5074172;28;19919;-67
2023/08/09 03:23:45;;;;;;;;;;;;;;;25.22;37.35;98404.81;5073772;28;19984;-67
2023/08/09 03:26:10;;;;;;;;;;;;;;;25.21;36.99;98406.78;5073958;28;19924;-67
2023/08/09 03:28:36;;;;;;;;;;;;;;;25.22;36.77;98411.13;5073739;28;20284;-67
2023/08/09 03:31:02;;;;;;;;;;;;;;;25.23;37.46;98409.19;5073660;28;19913;-67
2023/08/09 03:33:27;;;;;;;;;;;;;;;25.28;37.15;98420.00;5073681;28;19918;-67
2023/08/09 03:35:53;;;;;;;;;;;;;;;25.30;37.25;98429.47;5073693;28;20365;-67
2023/08/09 03:38:18;;;;;;;;;;;;;;;25.35;37.25;98427.66;5073599;28;19913;-67
2023/08/09 03:40:43;;;;;;;;;;;;;;;25.30;36.93;98437.72;5073909;28;19951;-67
2023/08/09 03:43:09;;;;;;;;;;;;;;;25.21;36.71;98441.69;5073025;28;19921;-67
2023/08/09 03:45:35;;;;;;;;;;;;;;;25.17;36.96;98452.56;5073554;28;19947;-67
2023/08/09 03:48:00;;;;;;;;;;;;;;;25.13;37.21;98448.91;5055091;28;19912;-67
2023/08/09 03:50:26;;;;;;;;;;;;;;;25.09;37.17;98453.44;5073378;28;19951;-67
2023/08/09 03:52:51;;;;;;;;;;;;;;;25.10;37.20;98460.56;5073598;28;19962;-67
2023/08/09 03:55:17;;;;;;;;;;;;;;;25.12;37.20;98466.50;5073343;28;19912;-67
2023/08/09 03:57:42;;;;;;;;;;;;;;;25.00;36.75;98475.53;5073726;28;20045;-67
2023/08/09 04:00:17;;;;;;;;;;;;;;;24.97;37.29;98469.91;5073363;28;20069;-66
2023/08/09 04:02:43;;;;;;;;;;;;;;;25.02;37.52;98480.69;5073322;28;20007;-67
2023/08/09 04:05:08;;;;;;;;;;;;;;;24.96;37.40;98484.75;5073341;28;20439;-67
2023/08/09 04:07:34;;;;;;;;;;;;;;;24.97;36.89;98489.91;5055340;28;19935;-67
2023/08/09 04:09:59;;;;;;;;;;;;;;;24.97;37.31;98495.41;5055209;28;19957;-67
2023/08/09 04:12:24;;;;;;;;;;;;;;;24.99;37.02;98504.13;5072858;28;19913;-67
2023/08/09 04:14:49;;;;;;;;;;;;;;;25.00;37.08;98511.22;5073024;28;20373;-67
2023/08/09 04:17:15;;;;;;;;;;;;;;;24.91;37.40;98516.78;5049382;28;19939;-66
2023/08/09 04:19:40;;;;;;;;;;;;;;;24.92;37.10;98514.84;5036319;28;19913;-67
2023/08/09 04:22:05;;;;;;;;;;;;;;;24.97;37.16;98527.56;5072520;28;19923;-67
2023/08/09 04:24:31;;;;;;;;;;;;;;;25.01;37.24;98532.03;5070824;28;19918;-67
2023/08/09 04:26:56;;;;;;;;;;;;;;;24.93;37.03;98533.72;5072023;28;19924;-67
2023/08/09 04:29:21;;;;;;;;;;;;;;;24.84;36.99;98545.94;5071972;28;19912;-66
2023/08/09 04:31:47;;;;;;;;;;;;;;;24.79;36.93;98555.16;5054645;28;19913;-67
2023/08/09 04:34:13;;;;;;;;;;;;;;;24.77;37.10;98546.47;5072425;28;19916;-67
2023/08/09 04:36:38;;;;;;;;;;;;;;;24.81;36.90;98563.06;5072460;28;19962;-67
2023/08/09 04:39:08;;;;;;;;;;;;;;;24.82;37.10;98567.44;5072346;28;19919;-67
2023/08/09 04:41:33;;;;;;;;;;;;;;;24.84;37.14;98573.38;5071738;28;19916;-67
2023/08/09 04:43:59;;;;;;;;;;;;;;;24.86;37.58;98577.41;5072188;28;20395;-67
2023/08/09 04:46:24;;;;;;;;;;;;;;;24.89;37.30;98579.47;5071703;28;19916;-66
2023/08/09 04:48:49;;;;;;;;;;;;;;;24.90;37.02;98591.25;5072064;28;20507;-66
2023/08/09 04:51:15;;;;;;;;;;;;;;;24.92;37.49;98591.72;5071780;28;19913;-66
2023/08/09 04:53:40;;;;;;;;;;;;;;;24.99;37.21;98600.25;5072236;28;20046;-67
2023/08/09 04:56:06;;;;;;;;;;;;;;;24.97;37.43;98596.22;5071936;28;19924;-66
2023/08/09 04:58:31;;;;;;;;;;;;;;;24.96;37.26;98600.09;5072562;28;19913;-66
2023/08/09 05:00:57;;;;;;;;;;;;;;;25.01;37.08;98616.38;5072473;28;19913;-66
2023/08/09 05:03:22;;;;;;;;;;;;;;;25.03;37.26;98620.41;5072109;28;19925;-67
2023/08/09 05:05:48;;;;;;;;;;;;;;;25.10;37.34;98619.88;5072208;28;19958;-66
2023/08/09 05:08:13;;;;;;;;;;;;;;;25.12;37.16;98634.88;5072476;28;20311;-66
2023/08/09 05:10:38;;;;;;;;;;;;;;;25.15;37.09;98638.91;5072153;28;19920;-67
2023/08/09 05:13:03;;;;;;;;;;;;;;;25.12;37.13;98637.59;5072329;28;19934;-67
2023/08/09 05:15:29;;;;;;;;;;;;;;;25.08;36.87;98644.91;5072314;28;19916;-67
2023/08/09 05:17:54;;;;;;;;;;;;;;;25.11;36.72;98654.41;5072249;28;19959;-67
2023/08/09 05:20:19;;;;;;;;;;;;;;;25.10;36.92;98659.13;5072342;28;19916;-67
2023/08/09 05:22:45;;;;;;;;;;;;;;;25.09;37.05;98662.19;5072113;28;20411;-67
2023/08/09 05:25:11;;;;;;;;;;;;;;;25.10;36.36;98670.09;5074050;28;19912;-67
2023/08/09 05:27:36;;;;;;;;;;;;;;;25.11;36.86;98673.66;5076188;28;20007;-67
2023/08/09 05:30:02;;;;;;;;;;;;;;;25.07;36.68;98686.44;5076170;28;20027;-67
2023/08/09 05:32:27;;;;;;;;;;;;;;;25.09;36.79;98696.00;5076189;28;19913;-67
2023/08/09 05:34:52;;;;;;;;;;;;;;;25.09;37.31;98696.00;5076393;28;19917;-67
2023/08/09 05:37:18;;;;;;;;;;;;;;;25.08;36.42;98708.09;5076069;28;20356;-67
2023/08/09 05:39:43;;;;;;;;;;;;;;;24.97;36.47;98708.84;5075928;28;19912;-67
2023/08/09 05:42:09;;;;;;;;;;;;;;;24.96;36.67;98709.97;5075578;28;19923;-67
2023/08/09 05:44:34;;;;;;;;;;;;;;;24.97;36.67;98723.38;5075890;28;20250;-67
2023/08/09 05:47:00;;;;;;;;;;;;;;;24.96;36.53;98721.75;5075442;28;19955;-67
2023/08/09 05:49:25;;;;;;;;;;;;;;;25.04;36.44;98728.34;5075980;28;19955;-67
2023/08/09 05:51:51;;;;;;;;;;;;;;;25.09;36.70;98731.69;5075704;28;19975;-67
2023/08/09 05:54:16;;;;;;;;;;;;;;;25.11;35.92;98732.16;5075366;28;19984;-65
2023/08/09 05:56:42;;;;;;;;;;;;;;;25.10;36.28;98740.72;5075816;28;19913;-68
2023/08/09 05:59:07;;;;;;;;;;;;;;;25.14;36.01;98755.41;5075417;28;19952;-67
2023/08/09 06:01:33;;;;;;;;;;;;;;;25.12;35.46;98755.72;5075403;28;20346;-67
2023/08/09 06:03:58;;;;;;;;;;;;;;;25.21;36.01;98768.63;5075218;28;19928;-64
2023/08/09 06:06:23;;;;;;;;;;;;;;;25.24;35.54;98762.47;5075515;28;19966;-67
2023/08/09 06:08:49;;;;;;;;;;;;;;;25.23;35.90;98774.59;5075341;28;19913;-67
2023/08/09 06:11:15;;;;;;;;;;;;;;;25.24;35.65;98767.97;5075303;28;19920;-67
2023/08/09 06:13:40;;;;;;;;;;;;;;;25.32;35.47;98777.31;5075573;28;20540;-65
2023/08/09 06:16:05;;;;;;;;;;;;;;;25.38;35.55;98782.28;5075356;28;19919;-67
2023/08/09 06:18:31;;;;;;;;;;;;;;;25.45;36.04;98784.50;5075506;28;19919;-67
2023/08/09 06:20:56;;;;;;;;;;;;;;;25.57;36.11;98786.50;5074793;28;19917;-67
2023/08/09 06:23:21;;;;;;;;;;;;;;;25.56;35.55;98798.66;5075096;28;20365;-68
2023/08/09 06:25:49;;;;;;;;;;;;;;;25.54;35.70;98799.00;5075269;28;19913;-68
2023/08/09 06:28:15;;;;;;;;;;;;;;;25.61;35.86;98803.94;5075401;28;19912;-67
2023/08/09 06:30:40;;;;;;;;;;;;;;;25.60;35.42;98808.63;5075211;28;19970;-67
2023/08/09 06:33:07;;;;;;;;;;;;;;;25.63;35.13;98818.97;5075084;28;19913;-67
2023/08/09 06:35:32;;;;;;;;;;;;;;;25.67;35.54;98825.41;5074491;28;19912;-68
2023/08/09 06:37:58;;;;;;;;;;;;;;;25.66;35.02;98831.25;5074538;28;19920;-68
2023/08/09 06:40:23;;;;;;;;;;;;;;;25.79;35.18;98837.63;5074643;28;20533;-67
2023/08/09 06:42:49;;;;;;;;;;;;;;;25.93;35.41;98845.63;5074664;28;19916;-67
2023/08/09 06:45:14;;;;;;;;;;;;;;;25.99;35.37;98856.09;5075180;28;20007;-68
2023/08/09 06:47:40;;;;;;;;;;;;;;;26.05;35.73;98852.00;5074071;28;19981;-68
2023/08/09 06:50:05;;;;;;;;;;;;;;;26.13;35.45;98857.75;5074500;28;19912;-68
2023/08/09 06:52:31;;;;;;;;;;;;;;;26.19;35.72;98870.19;5074949;28;19912;-68
2023/08/09 06:54:56;;;;;;;;;;;;;;;26.27;35.49;98867.34;5074096;28;20329;-66
2023/08/09 06:57:22;;;;;;;;;;;;;;;26.33;35.58;98878.94;5074347;28;19955;-66
2023/08/09 06:59:48;;;;;;;;;;;;;;;26.39;35.48;98879.53;5074475;28;19917;-66
2023/08/09 07:02:14;;;;;;;;;;;;;;;26.29;34.76;98880.78;5073929;28;19920;-66
2023/08/09 07:04:39;;;;;;;;;;;;;;;26.24;34.90;98895.56;5074764;28;19923;-66
2023/08/09 07:07:05;;;;;;;;;;;;;;;26.23;34.86;98901.38;5074355;28;19913;-66
2023/08/09 07:09:30;;;;;;;;;;;;;;;26.20;34.81;98905.59;5074192;28;19920;-66
2023/08/09 07:11:56;;;;;;;;;;;;;;;26.17;35.35;98921.97;5074252;28;19951;-66
2023/08/09 07:14:23;;;;;;;;;;;;;;;26.21;34.45;98920.19;5061029;28;19928;-66
2023/08/09 07:16:48;;;;;;;;;;;;;;;26.23;34.92;98924.19;5053902;28;19912;-66
2023/08/09 07:19:14;;;;;;;;;;;;;;;26.25;35.11;98934.88;5071188;28;19912;-66
2023/08/09 07:21:39;;;;;;;;;;;;;;;26.22;35.46;98943.81;5073652;28;19912;-66
2023/08/09 07:24:04;;;;;;;;;;;;;;;26.20;35.12;98938.63;5073421;28;20042;-66
2023/08/09 07:26:30;;;;;;;;;;;;;;;26.22;35.20;98943.81;5055574;28;19954;-65
2023/08/09 07:28:55;;;;;;;;;;;;;;;26.26;35.33;98953.00;5074133;28;19943;-65
2023/08/09 07:31:22;;;;;;;;;;;;;;;25.96;35.00;98908.22;5056443;28;20260;-65
2023/08/09 07:33:48;;;;;;;;;;;;;;;26.26;35.29;98961.25;5073570;28;19917;-64
2023/08/09 07:36:13;;;;;;;;;;;;;;;26.25;35.91;98976.16;5073309;28;20398;-64
2023/08/09 07:38:39;;;;;;;;;;;;;;;26.27;35.27;98971.13;5073670;28;19920;-64
2023/08/09 07:41:05;;;;;;;;;;;;;;;26.33;35.37;98977.25;5073899;28;19920;-64
2023/08/09 07:43:32;;;;;;;;;;;;;;;26.42;35.82;98983.47;5073442;28;20014;-64
2023/08/09 07:45:57;;;;;;;;;;;;;;;26.49;35.96;98992.00;5073534;28;20333;-64
2023/08/09 07:48:22;;;;;;;;;;;;;;;26.53;35.72;99001.19;5071780;28;19924;-64
2023/08/09 07:50:48;;;;;;;;;;;;;;;26.59;35.37;99001.81;5073396;28;19912;-65
2023/08/09 07:53:13;;;;;;;;;;;;;;;26.65;35.43;99011.50;5073297;28;20024;-64
2023/08/09 07:55:39;;;;;;;;;;;;;;;26.62;35.47;99015.75;5071837;28;19920;-64
2023/08/09 07:58:04;;;;;;;;;;;;;;;26.63;35.28;99027.56;5072103;28;19974;-64
2023/08/09 08:00:30;;;;;;;;;;;;;;;26.57;35.68;99039.88;5072625;28;19924;-64
2023/08/09 08:02:55;;;;;;;;;;;;;;;26.60;35.46;99044.78;5072413;28;19927;-64
2023/08/09 08:05:21;;;;;;;;;;;;;;;26.65;36.12;99045.38;5072724;28;20308;-64
2023/08/09 08:07:46;;;;;;;;;;;;;;;26.74;35.87;99053.53;5072831;28;19920;-64
2023/08/09 08:10:14;;;;;;;;;;;;;;;26.76;35.84;99053.22;5072966;28;19912;-64
2023/08/09 08:12:39;;;;;;;;;;;;;;;26.80;35.50;99054.97;5073143;28;20356;-66
2023/08/09 08:15:06;;;;;;;;;;;;;;;26.78;35.83;99057.25;5073081;28;19952;-65
2023/08/09 08:17:32;;;;;;;;;;;;;;;26.76;35.81;99064.22;5073262;28;19916;-64
2023/08/09 08:19:57;;;;;;;;;;;;;;;26.72;36.18;99069.59;5073052;28;20365;-65
2023/08/09 08:22:23;;;;;;;;;;;;;;;26.73;35.96;99073.97;5073052;28;20003;-64
2023/08/09 08:24:48;;;;;;;;;;;;;;;26.76;35.91;99069.72;5072791;28;20354;-64
2023/08/09 08:27:13;;;;;;;;;;;;;;;26.76;36.22;99073.28;5072866;28;20254;-65
2023/08/09 08:29:39;;;;;;;;;;;;;;;26.74;35.21;99081.09;5072884;28;20380;-65
2023/08/09 08:32:05;;;;;;;;;;;;;;;26.72;35.72;99079.81;5072902;28;19920;-65
2023/08/09 08:34:31;;;;;;;;;;;;;;;26.98;35.46;99093.38;5073103;28;19967;-65
2023/08/09 08:37:00;;;;;;;;;;;;;;;27.04;35.22;99092.84;5072815;28;20264;-66
2023/08/09 08:39:25;;;;;;;;;;;;;;;27.09;34.76;99100.09;5072268;28;19916;-66
2023/08/09 08:41:51;;;;;;;;;;;;;;;27.13;35.16;99100.22;5072433;28;19913;-65
2023/08/09 08:44:17;;;;;;;;;;;;;;;27.11;35.20;99097.81;5072991;28;20253;-66
2023/08/09 08:46:42;;;;;;;;;;;;;;;27.17;34.85;99098.41;5071978;28;19917;-66
2023/08/09 08:49:11;;;;;;;;;;;;;;;27.21;35.11;99100.16;5072353;28;20009;-66
2023/08/09 08:51:38;;;;;;;;;;;;;;;27.28;35.02;99102.38;5072326;28;19918;-65
2023/08/09 08:54:04;;;;;;;;;;;;;;;27.37;35.27;99107.81;5072168;28;19916;-65
2023/08/09 08:56:29;;;;;;;;;;;;;;;27.48;34.90;99111.75;5072746;28;19970;-65
2023/08/09 08:58:54;;;;;;;;;;;;;;;27.59;35.09;99125.91;5054490;28;19919;-65
2023/08/09 09:01:20;;;;;;;;;;;;;;;27.66;34.80;99125.38;5072578;28;19958;-66
2023/08/09 09:03:47;;;;;;;;;;;;;;;27.68;34.72;99117.56;5085181;28;19978;-66
2023/08/09 09:06:14;;;;;;;;;;;;;;;27.74;34.50;99127.22;5093001;28;19912;-66
2023/08/09 09:08:43;;;;;;;;;;;;;;;27.71;34.23;99130.66;5092942;28;19916;-66
2023/08/09 09:11:18;;;;;;;;;;;;;;;27.75;34.83;99139.88;5079980;28;19916;-66
2023/08/09 09:13:46;;;;;;;;;;;;;;;27.79;34.60;99133.31;5072495;28;19923;-66
2023/08/09 09:16:11;;;;;;;;;;;;;;;27.76;34.80;99147.00;5072434;28;19912;-65
2023/08/09 09:18:45;;;;;;;;;;;;;;;27.68;34.54;99150.66;5072437;28;19965;-65
2023/08/09 09:21:10;;;;;;;;;;;;;;;27.61;34.59;99154.75;5072731;28;20284;-65
2023/08/09 09:23:36;;;;;;;;;;;;;;;27.58;34.65;99163.75;5072275;28;19917;-65
2023/08/09 09:26:08;;;;;;;;;;;;;;;27.57;34.32;99162.13;5072322;28;19913;-65
2023/08/09 09:28:41;;;;;;;;;;;;;;;27.53;35.12;99158.44;5072530;28;20368;-65
2023/08/09 09:31:06;;;;;;;;;;;;;;;27.56;35.36;99159.69;5072641;28;20449;-65
2023/08/09 09:33:33;;;;;;;;;;;;;;;27.68;34.63;99175.50;5072641;28;19955;-65
2023/08/09 09:36:01;;;;;;;;;;;;;;;27.87;34.50;99170.25;5072408;28;19912;-65
2023/08/09 09:38:26;;;;;;;;;;;;;;;28.06;34.53;99177.22;5072147;28;20024;-65
2023/08/09 09:40:52;;;;;;;;;;;;;;;28.22;34.22;99180.13;5072189;28;19955;-65
2023/08/09 09:43:17;;;;;;;;;;;;;;;28.31;34.35;99178.06;5071984;28;20005;-65
2023/08/09 09:45:43;;;;;;;;;;;;;;;28.39;34.60;99174.38;5071658;28;19921;-65
2023/08/09 09:48:18;;;;;;;;;;;;;;;28.41;34.20;99172.06;5071018;28;20002;-65
2023/08/09 09:50:44;;;;;;;;;;;;;;;28.54;34.30;99184.75;5071958;28;19916;-65
2023/08/09 09:53:11;;;;;;;;;;;;;;;28.59;33.64;99188.44;5071154;28;20290;-65
2023/08/09 09:55:38;;;;;;;;;;;;;;;28.65;34.02;99190.63;5071735;28;20065;-65
2023/08/09 09:58:03;;;;;;;;;;;;;;;28.72;34.35;99203.88;5074528;28;20014;-65
2023/08/09 10:00:29;;;;;;;;;;;;;;;28.82;34.29;99202.59;5092148;28;19912;-65
2023/08/09 10:02:54;;;;;;;;;;;;;;;28.82;33.22;99219.16;5071720;28;20396;-65
2023/08/09 10:05:26;;;;;;;;;;;;;;;28.75;32.74;99214.22;5071615;28;20348;-65
2023/08/09 10:07:51;;;;;;;;;;;;;;;28.87;32.77;99221.69;5071721;28;19913;-65
2023/08/09 10:10:17;;;;;;;;;;;;;;;28.93;32.91;99221.09;5071634;28;19935;-65
2023/08/09 10:12:53;;;;;;;;;;;;;;;29.07;33.03;99220.75;5075241;28;19913;-65
2023/08/09 10:15:23;;;;;;;;;;;;;;;29.14;32.99;99221.00;5075172;28;19919;-65
2023/08/09 10:17:51;;;;;;;;;;;;;;;29.26;32.48;99222.13;5068931;28;20023;-65
2023/08/09 10:20:17;;;;;;;;;;;;;;;29.27;32.01;99234.78;5073460;28;19912;-65
2023/08/09 10:22:45;;;;;;;;;;;;;;;29.24;32.76;99232.72;5051256;28;19923;-65
2023/08/09 10:25:10;;;;;;;;;;;;;;;29.19;32.78;99239.28;5054754;28;19917;-65
2023/08/09 10:27:49;;;;;;;;;;;;;;;29.09;32.39;99237.00;5054669;28;19963;-65
2023/08/09 10:30:15;;;;;;;;;;;;;;;28.93;31.58;99248.75;5054584;28;19912;-66
2023/08/09 10:32:51;;;;;;;;;;;;;;;29.00;32.58;99250.13;5055131;28;19920;-65
2023/08/09 10:35:20;;;;;;;;;;;;;;;29.10;32.52;99250.47;5054442;28;20004;-65
2023/08/09 10:37:46;;;;;;;;;;;;;;;29.23;31.47;99251.25;5054060;28;20359;-65
2023/08/09 10:40:15;;;;;;;;;;;;;;;29.14;31.04;99254.19;5064640;28;19912;-66
2023/08/09 10:42:43;;;;;;;;;;;;;;;29.17;31.34;99258.19;5074622;28;19923;-66
2023/08/09 10:45:09;;;;;;;;;;;;;;;29.18;31.89;99259.81;5074812;28;19923;-66
2023/08/09 10:47:34;;;;;;;;;;;;;;;29.21;31.74;99264.63;5073776;28;19916;-66
2023/08/09 10:50:00;;;;;;;;;;;;;;;29.25;32.51;99270.28;5074407;28;19912;-66
2023/08/09 10:52:30;;;;;;;;;;;;;;;29.18;31.43;99270.88;5074387;28;19916;-66
2023/08/09 10:55:24;;;;;;;;;;;;;;;29.19;32.63;99280.78;5074255;28;19917;-66
2023/08/09 10:57:50;;;;;;;;;;;;;;;29.12;32.13;99277.75;5074365;28;20552;-66
2023/08/09 11:00:16;;;;;;;;;;;;;;;29.22;32.45;99282.06;5073994;28;19912;-66
2023/08/09 11:02:51;;;;;;;;;;;;;;;29.46;32.08;99286.72;5074162;28;19999;-66
2023/08/09 11:05:17;;;;;;;;;;;;;;;29.59;32.23;99291.06;5074136;28;19916;-66
2023/08/09 11:07:56;;;;;;;;;;;;;;;29.69;32.62;99287.78;5074628;28;19913;-66
2023/08/09 11:10:32;;;;;;;;;;;;;;;29.73;32.35;99294.25;5074398;28;19917;-66
2023/08/09 11:12:57;;;;;;;;;;;;;;;29.77;30.05;99294.38;5074217;28;19943;-66
2023/08/09 11:15:22;;;;;;;;;;;;;;;29.82;30.12;99302.44;5074115;28;20366;-66
2023/08/09 11:17:48;;;;;;;;;;;;;;;29.94;31.38;99304.34;5073857;28;20276;-66
2023/08/09 11:20:14;;;;;;;;;;;;;;;30.06;31.19;99303.50;5073729;28;19924;-66
2023/08/09 11:22:44;;;;;;;;;;;;;;;30.13;29.98;99309.22;5073818;28;19939;-66
2023/08/09 11:25:09;;;;;;;;;;;;;;;30.03;29.91;99307.78;5074021;28;20300;-66
2023/08/09 11:27:38;;;;;;;;;;;;;;;30.14;29.88;99321.09;5074135;28;19918;-66
2023/08/09 11:30:03;;;;;;;;;;;;;;;30.10;30.10;99327.34;5073783;28;20393;-66
2023/08/09 11:32:28;;;;;;;;;;;;;;;30.04;29.71;99326.00;5073809;28;19912;-66
2023/08/09 11:34:54;;;;;;;;;;;;;;;29.84;30.33;99332.53;5073751;28;19919;-66
2023/08/09 11:37:19;;;;;;;;;;;;;;;29.57;29.84;99334.06;5073353;28;19912;-66
2023/08/09 11:39:44;;;;;;;;;;;;;;;29.40;29.05;99341.50;5073109;28;19924;-66
2023/08/09 11:42:09;;;;;;;;;;;;;;;29.45;29.67;99343.19;5072573;28;19916;-65
2023/08/09 11:44:35;;;;;;;;;;;;;;;29.50;29.59;99343.75;5054808;28;20357;-66
2023/08/09 11:47:01;;;;;;;;;;;;;;;29.53;30.24;99347.78;5054868;28;19916;-66
2023/08/09 11:49:30;;;;;;;;;;;;;;;29.47;30.93;99354.72;5072939;28;19962;-66
2023/08/09 11:51:56;;;;;;;;;;;;;;;29.34;30.21;99359.44;5066866;28;19917;-66
2023/08/09 11:54:21;;;;;;;;;;;;;;;29.14;31.13;99370.31;5073011;28;19920;-66
2023/08/09 11:56:47;;;;;;;;;;;;;;;28.80;31.04;99377.03;5073414;28;19913;-65
2023/08/09 11:59:16;;;;;;;;;;;;;;;28.68;31.39;99371.50;5073614;28;19977;-66
2023/08/09 12:01:44;;;;;;;;;;;;;;;28.60;31.45;99387.00;5073640;28;19912;-65
2023/08/09 12:04:11;;;;;;;;;;;;;;;28.63;31.67;99385.50;5072870;28;19940;-66
2023/08/09 12:06:55;;;;;;;;;;;;;;;28.76;32.38;99392.69;5073667;28;20001;-66
2023/08/09 12:09:45;;;;;;;;;;;;;;;28.88;32.33;99392.72;5073416;28;19912;-66
2023/08/09 12:12:15;;;;;;;;;;;;;;;28.98;31.62;99399.75;5063051;28;19913;-66
2023/08/09 12:14:48;;;;;;;;;;;;;;;29.03;32.07;99391.25;5073217;28;19919;-66
2023/08/09 12:17:18;;;;;;;;;;;;;;;29.02;31.53;99399.88;5073131;28;19917;-66
2023/08/09 12:19:44;;;;;;;;;;;;;;;29.03;31.43;99395.94;5072465;28;19916;-66
2023/08/09 12:22:09;;;;;;;;;;;;;;;29.19;31.82;99393.34;5054196;28;19920;-66
2023/08/09 12:24:34;;;;;;;;;;;;;;;29.31;31.50;99398.88;5072450;28;19923;-66
2023/08/09 12:27:00;;;;;;;;;;;;;;;29.40;31.93;99399.56;5072680;28;20329;-66
2023/08/09 12:29:25;;;;;;;;;;;;;;;29.30;30.78;99400.81;5073096;28;19912;-66
2023/08/09 12:31:50;;;;;;;;;;;;;;;29.16;31.10;99408.69;5072664;28;20025;-66
2023/08/09 12:34:16;;;;;;;;;;;;;;;29.11;31.83;99426.25;5072529;28;19994;-66
2023/08/09 12:36:41;;;;;;;;;;;;;;;29.08;31.01;99423.38;5072669;28;19912;-66
2023/08/09 12:39:14;;;;;;;;;;;;;;;29.14;31.36;99433.06;5072483;28;19952;-66
2023/08/09 12:41:40;;;;;;;;;;;;;;;29.23;31.66;99424.69;5072450;28;19916;-66
2023/08/09 12:44:07;;;;;;;;;;;;;;;29.37;31.54;99430.69;5072444;28;20345;-66